Time;durP1;ratioP1;P1;durP2;ratioP2;P2;SDS_P1;SDS_P2;PMS_P1;PMS_P2;Temp;Humidity;BMP_temperature;BMP_pressure;BME280_temperature;BME280_humidity;BME280_pressure;Samples;Min_cycle;Max_cycle;Signal;HPM_P1;HPM_P2
2023/05/01 00:00:14;;;;;;;13.43;9.40;;;19.40;60.10;;;;;;5034821;28;20116;-57
2023/05/01 00:02:39;;;;;;;11.95;8.85;;;19.40;60.00;;;;;;5017356;28;20034;-59
2023/05/01 00:05:06;;;;;;;15.40;8.73;;;19.40;60.00;;;;;;5021367;28;20121;-50
2023/05/01 00:07:32;;;;;;;13.60;8.93;;;19.40;60.00;;;;;;5037858;28;20037;-48
2023/05/01 00:09:57;;;;;;;13.63;9.05;;;19.40;60.00;;;;;;5036160;28;20220;-51
2023/05/01 00:12:23;;;;;;;13.00;9.65;;;19.40;59.90;;;;;;5036969;28;20037;-52
2023/05/01 00:14:49;;;;;;;13.02;9.45;;;19.40;59.90;;;;;;5038333;28;20033;-51
2023/05/01 00:17:15;;;;;;;13.95;9.65;;;19.40;59.90;;;;;;5036842;28;20253;-50
2023/05/01 00:19:41;;;;;;;11.57;8.35;;;19.30;59.90;;;;;;5032254;28;20029;-52
2023/05/01 00:22:06;;;;;;;12.95;8.95;;;19.40;59.90;;;;;;5037428;28;20136;-50
2023/05/01 00:24:32;;;;;;;11.80;8.85;;;19.40;59.90;;;;;;5038489;28;20132;-48
2023/05/01 00:26:58;;;;;;;10.52;8.65;;;19.30;59.80;;;;;;5033670;28;20033;-52
2023/05/01 00:29:23;;;;;;;13.82;9.40;;;19.40;59.80;;;;;;5035901;28;20037;-56
2023/05/01 00:31:49;;;;;;;13.32;8.80;;;19.30;59.70;;;;;;5034474;28;20505;-53
2023/05/01 00:34:14;;;;;;;12.68;9.00;;;19.30;59.70;;;;;;5016386;28;20033;-51
2023/05/01 00:36:40;;;;;;;13.52;9.80;;;19.30;59.70;;;;;;5022929;28;20045;-53
2023/05/01 00:39:09;;;;;;;12.25;9.18;;;19.40;59.70;;;;;;5037688;28;20030;-52
2023/05/01 00:41:35;;;;;;;11.50;8.15;;;19.30;59.60;;;;;;5029130;28;20522;-53
2023/05/01 00:44:00;;;;;;;11.65;8.40;;;19.30;59.60;;;;;;5037051;28;20029;-53
2023/05/01 00:46:28;;;;;;;12.23;9.02;;;19.30;59.60;;;;;;5034558;28;20064;-53
2023/05/01 00:48:54;;;;;;;12.13;8.85;;;19.30;59.70;;;;;;5034882;28;20453;-50
2023/05/01 00:51:21;;;;;;;11.40;9.35;;;19.30;59.50;;;;;;5035376;28;20026;-53
2023/05/01 00:53:46;;;;;;;10.65;8.52;;;19.30;59.60;;;;;;5034979;28;20038;-53
2023/05/01 00:56:13;;;;;;;10.13;8.43;;;19.30;59.50;;;;;;5029371;28;20029;-50
2023/05/01 00:58:39;;;;;;;12.27;9.07;;;19.30;59.50;;;;;;5030067;28;20546;-49
2023/05/01 01:01:06;;;;;;;12.50;9.45;;;19.20;59.40;;;;;;5033590;28;20365;-55
2023/05/01 01:03:31;;;;;;;13.07;8.82;;;19.20;59.30;;;;;;5037055;28;20048;-49
2023/05/01 01:06:08;;;;;;;12.38;8.65;;;19.20;59.30;;;;;;5035334;28;20029;-50
2023/05/01 01:08:40;;;;;;;14.18;8.55;;;19.20;59.30;;;;;;5033575;28;20544;-51
2023/05/01 01:11:21;;;;;;;12.80;9.27;;;19.20;59.30;;;;;;5033383;28;20511;-50
2023/05/01 01:13:57;;;;;;;11.20;8.80;;;19.20;59.30;;;;;;5034647;28;20152;-51
2023/05/01 01:16:44;;;;;;;11.27;8.45;;;19.20;59.30;;;;;;5034465;28;20484;-50
2023/05/01 01:19:34;;;;;;;11.23;8.00;;;19.20;59.20;;;;;;5031396;28;20112;-51
2023/05/01 01:22:09;;;;;;;13.38;8.13;;;19.20;59.20;;;;;;5031629;28;20040;-50
2023/05/01 01:24:56;;;;;;;11.38;8.55;;;19.20;59.20;;;;;;5031511;28;20099;-52
2023/05/01 01:27:57;;;;;;;11.02;8.70;;;19.20;59.10;;;;;;5035035;28;20082;-49
2023/05/01 01:30:52;;;;;;;12.88;8.70;;;19.20;59.10;;;;;;5036020;28;20040;-52
2023/05/01 01:33:28;;;;;;;10.80;8.52;;;19.20;59.10;;;;;;5034986;28;20117;-50
2023/05/01 01:36:06;;;;;;;13.60;8.32;;;19.20;59.00;;;;;;5019911;28;20813;-51
2023/05/01 01:38:51;;;;;;;13.10;8.32;;;19.20;59.00;;;;;;5033779;28;20731;-55
2023/05/01 01:41:25;;;;;;;14.57;7.93;;;19.20;59.00;;;;;;5035396;28;20033;-51
2023/05/01 01:44:22;;;;;;;11.93;8.43;;;19.20;59.00;;;;;;5033574;28;20117;-51
2023/05/01 01:46:51;;;;;;;12.75;8.77;;;19.20;58.90;;;;;;5030462;28;20132;-51
2023/05/01 01:49:26;;;;;;;10.73;8.18;;;19.20;59.00;;;;;;5033372;28;20037;-52
2023/05/01 01:51:54;;;;;;;12.27;8.23;;;19.20;58.90;;;;;;5034618;28;20078;-51
2023/05/01 01:54:26;;;;;;;11.35;8.05;;;19.20;58.80;;;;;;5029103;28;20112;-53
2023/05/01 01:56:53;;;;;;;11.82;7.32;;;19.20;58.90;;;;;;5026529;28;20026;-50
2023/05/01 01:59:21;;;;;;;10.80;7.57;;;19.20;58.80;;;;;;5033808;28;20024;-49
2023/05/01 02:01:48;;;;;;;10.93;7.57;;;19.20;58.80;;;;;;5032059;28;20033;-48
2023/05/01 02:04:15;;;;;;;12.82;8.55;;;19.20;58.70;;;;;;5034415;28;20029;-50
2023/05/01 02:06:43;;;;;;;10.70;8.25;;;19.20;58.80;;;;;;5030122;28;20029;-51
2023/05/01 02:09:10;;;;;;;10.18;7.93;;;19.20;58.80;;;;;;5030857;28;20437;-49
2023/05/01 02:11:37;;;;;;;10.52;7.80;;;19.20;58.70;;;;;;5032832;28;20025;-52
2023/05/01 02:14:05;;;;;;;10.95;8.27;;;19.20;58.80;;;;;;5030522;28;20592;-48
2023/05/01 02:16:33;;;;;;;11.30;8.02;;;19.20;58.70;;;;;;5030599;28;20044;-52
2023/05/01 02:19:00;;;;;;;11.68;7.97;;;19.10;58.70;;;;;;5033710;28;20045;-48
2023/05/01 02:21:29;;;;;;;12.73;8.15;;;19.10;58.70;;;;;;5020784;28;20086;-52
2023/05/01 02:23:57;;;;;;;9.85;7.65;;;19.10;58.70;;;;;;5030364;28;20767;-51
2023/05/01 02:26:25;;;;;;;11.65;7.78;;;19.10;58.80;;;;;;5034951;28;20562;-50
2023/05/01 02:28:50;;;;;;;12.35;8.30;;;19.10;58.80;;;;;;5017461;28;20029;-53
2023/05/01 02:31:16;;;;;;;10.27;8.07;;;19.10;58.80;;;;;;5034124;28;20705;-52
2023/05/01 02:33:41;;;;;;;9.80;7.53;;;19.00;58.80;;;;;;5033298;28;20041;-51
2023/05/01 02:36:07;;;;;;;11.18;7.30;;;19.00;58.80;;;;;;5033426;28;20036;-50
2023/05/01 02:38:33;;;;;;;11.50;8.18;;;19.00;58.80;;;;;;5032569;28;20032;-48
2023/05/01 02:41:00;;;;;;;10.13;7.55;;;19.00;58.80;;;;;;5031350;28;20546;-49
2023/05/01 02:43:27;;;;;;;10.23;8.45;;;19.00;58.80;;;;;;5030676;28;20025;-49
2023/05/01 02:45:53;;;;;;;11.38;8.30;;;19.00;58.80;;;;;;5031993;28;20025;-48
2023/05/01 02:48:25;;;;;;;9.60;7.65;;;19.00;58.80;;;;;;5030529;28;20033;-50
2023/05/01 02:50:52;;;;;;;10.93;8.43;;;18.90;58.70;;;;;;5033687;28;20037;-52
2023/05/01 02:53:19;;;;;;;12.70;8.63;;;19.00;58.80;;;;;;5034304;28;20088;-50
2023/05/01 02:55:44;;;;;;;9.20;7.68;;;19.00;58.70;;;;;;5031835;28;20067;-48
2023/05/01 02:58:17;;;;;;;12.77;8.50;;;19.00;58.70;;;;;;5032817;28;20057;-52
2023/05/01 03:00:44;;;;;;;10.52;8.13;;;19.00;58.60;;;;;;5030464;28;20091;-50
2023/05/01 03:03:10;;;;;;;10.65;7.75;;;19.00;58.60;;;;;;5033567;28;20108;-50
2023/05/01 03:05:37;;;;;;;11.80;7.78;;;19.00;58.60;;;;;;5033605;28;20043;-52
2023/05/01 03:08:03;;;;;;;12.13;7.95;;;19.00;58.70;;;;;;5027827;28;20119;-56
2023/05/01 03:10:28;;;;;;;10.70;7.72;;;19.00;58.60;;;;;;5027911;28;20594;-53
2023/05/01 03:12:54;;;;;;;9.35;7.57;;;19.00;58.60;;;;;;5032860;28;20030;-55
2023/05/01 03:15:20;;;;;;;12.82;8.15;;;19.00;58.60;;;;;;5032664;28;20037;-53
2023/05/01 03:17:45;;;;;;;11.18;8.70;;;19.00;58.50;;;;;;5035183;28;20552;-58
2023/05/01 03:20:11;;;;;;;10.93;7.60;;;19.00;58.50;;;;;;5034738;28;20029;-54
2023/05/01 03:22:36;;;;;;;10.38;8.25;;;18.90;58.60;;;;;;5038615;28;20033;-50
2023/05/01 03:25:03;;;;;;;12.65;7.78;;;19.00;58.50;;;;;;5036791;28;20098;-54
2023/05/01 03:27:29;;;;;;;10.25;7.78;;;18.90;58.60;;;;;;5036962;28;20045;-53
2023/05/01 03:29:55;;;;;;;10.27;7.50;;;19.00;58.50;;;;;;5034141;28;20073;-49
2023/05/01 03:32:21;;;;;;;11.02;7.82;;;18.90;58.50;;;;;;5035888;28;20135;-50
2023/05/01 03:34:47;;;;;;;11.48;8.18;;;19.00;58.40;;;;;;5049416;23;20045;-60
2023/05/01 03:37:13;;;;;;;9.27;7.35;;;19.00;58.50;;;;;;5036347;28;20433;-60
2023/05/01 03:39:39;;;;;;;10.90;7.78;;;18.90;58.30;;;;;;5039252;28;20040;-60
2023/05/01 03:42:05;;;;;;;10.30;7.15;;;18.90;58.30;;;;;;5041580;28;20410;-60
2023/05/01 03:44:31;;;;;;;8.43;6.65;;;19.00;58.40;;;;;;5020128;28;20476;-61
2023/05/01 03:46:57;;;;;;;10.38;7.88;;;19.00;58.30;;;;;;5041055;28;20277;-61
2023/05/01 03:49:22;;;;;;;10.30;7.28;;;18.90;58.20;;;;;;5038646;28;20033;-60
2023/05/01 03:51:48;;;;;;;10.30;7.68;;;19.00;58.30;;;;;;5035385;28;20025;-61
2023/05/01 03:54:13;;;;;;;9.65;7.18;;;19.00;58.20;;;;;;5039771;28;20063;-60
2023/05/01 03:56:39;;;;;;;10.25;6.93;;;18.90;58.20;;;;;;5040925;28;20033;-60
2023/05/01 03:59:04;;;;;;;10.55;8.10;;;19.00;58.20;;;;;;5038302;28;20380;-59
2023/05/01 04:01:32;;;;;;;12.52;8.20;;;19.00;58.30;;;;;;5040558;28;20040;-61
2023/05/01 04:03:58;;;;;;;11.15;6.93;;;19.00;58.20;;;;;;5040883;28;20372;-60
2023/05/01 04:06:24;;;;;;;10.02;7.47;;;19.00;58.20;;;;;;5022134;28;20036;-62
2023/05/01 04:08:49;;;;;;;9.90;7.68;;;19.00;58.10;;;;;;5013227;28;20036;-60
2023/05/01 04:11:15;;;;;;;9.70;7.35;;;19.00;58.00;;;;;;5041892;28;20444;-60
2023/05/01 04:13:40;;;;;;;12.77;8.35;;;19.00;58.10;;;;;;5041862;28;20464;-60
2023/05/01 04:16:06;;;;;;;9.45;7.63;;;19.00;58.00;;;;;;5042628;28;20066;-60
2023/05/01 04:18:31;;;;;;;8.68;6.85;;;19.00;58.00;;;;;;5040073;28;20098;-62
2023/05/01 04:20:57;;;;;;;9.73;8.00;;;19.00;57.90;;;;;;5036090;28;20387;-62
2023/05/01 04:23:22;;;;;;;9.07;7.13;;;19.00;57.90;;;;;;5036386;28;20037;-62
2023/05/01 04:25:48;;;;;;;9.77;7.22;;;19.00;57.90;;;;;;5040519;28;20028;-62
2023/05/01 04:28:13;;;;;;;9.73;7.35;;;19.00;57.80;;;;;;5040191;28;20133;-62
2023/05/01 04:30:39;;;;;;;9.85;7.53;;;19.10;57.80;;;;;;5040587;28;20048;-61
2023/05/01 04:33:10;;;;;;;9.50;7.03;;;19.10;57.70;;;;;;5043669;28;20504;-62
2023/05/01 04:35:39;;;;;;;8.63;6.70;;;19.10;57.70;;;;;;5038650;28;20421;-62
2023/05/01 04:38:05;;;;;;;10.30;7.13;;;19.10;57.80;;;;;;5041868;28;20033;-62
2023/05/01 04:40:31;;;;;;;9.10;7.32;;;19.10;57.80;;;;;;5037490;28;20055;-62
2023/05/01 04:42:56;;;;;;;10.20;7.57;;;19.10;57.80;;;;;;5023867;28;20719;-62
2023/05/01 04:45:22;;;;;;;11.93;7.15;;;19.10;57.80;;;;;;5037542;28;20478;-62
2023/05/01 04:47:47;;;;;;;9.57;6.90;;;19.10;57.70;;;;;;5014992;28;20051;-60
2023/05/01 04:50:13;;;;;;;9.95;7.57;;;19.00;57.70;;;;;;5039132;28;20124;-59
2023/05/01 04:52:38;;;;;;;9.15;7.38;;;19.10;57.70;;;;;;5040910;28;20033;-56
2023/05/01 04:55:05;;;;;;;11.07;8.07;;;19.00;57.70;;;;;;5041121;28;20032;-59
2023/05/01 04:57:30;;;;;;;13.27;7.85;;;19.10;57.80;;;;;;5039084;28;20091;-61
2023/05/01 04:59:56;;;;;;;10.93;7.60;;;19.10;57.70;;;;;;5037566;28;20029;-62
2023/05/01 05:02:21;;;;;;;11.68;8.20;;;19.10;57.80;;;;;;5040717;28;20552;-59
2023/05/01 05:04:47;;;;;;;10.52;7.22;;;19.10;57.70;;;;;;5038409;28;20511;-60
2023/05/01 05:07:13;;;;;;;10.85;7.18;;;19.10;57.60;;;;;;5040450;28;20440;-60
2023/05/01 05:09:38;;;;;;;8.90;6.80;;;19.10;57.60;;;;;;5038479;28;20025;-60
2023/05/01 05:12:04;;;;;;;10.05;7.93;;;19.10;57.70;;;;;;5039120;28;20025;-61
2023/05/01 05:14:30;;;;;;;11.27;7.47;;;19.10;57.60;;;;;;5038814;28;20044;-60
2023/05/01 05:16:56;;;;;;;9.65;7.13;;;19.10;57.60;;;;;;5040651;28;20025;-59
2023/05/01 05:19:21;;;;;;;9.90;7.65;;;19.10;57.60;;;;;;5037274;28;20115;-60
2023/05/01 05:21:47;;;;;;;10.05;6.97;;;19.10;57.50;;;;;;5040354;28;20502;-60
2023/05/01 05:24:13;;;;;;;12.50;7.68;;;19.20;57.60;;;;;;5039936;28;20052;-61
2023/05/01 05:26:38;;;;;;;8.75;6.60;;;19.10;57.60;;;;;;5037833;28;20025;-60
2023/05/01 05:29:04;;;;;;;12.05;8.00;;;19.20;57.60;;;;;;5040648;28;20688;-61
2023/05/01 05:31:29;;;;;;;9.02;7.18;;;19.20;57.60;;;;;;5022609;28;20037;-60
2023/05/01 05:33:55;;;;;;;8.95;7.13;;;19.20;57.50;;;;;;5040633;28;20045;-60
2023/05/01 05:36:20;;;;;;;8.82;7.20;;;19.20;57.60;;;;;;5036837;28;20078;-60
2023/05/01 05:38:46;;;;;;;8.38;7.32;;;19.20;57.60;;;;;;5037907;28;20505;-60
2023/05/01 05:41:11;;;;;;;8.70;7.03;;;19.20;57.60;;;;;;5034491;28;20786;-60
2023/05/01 05:43:37;;;;;;;11.30;7.60;;;19.20;57.70;;;;;;5040554;28;20036;-60
2023/05/01 05:46:02;;;;;;;11.23;7.30;;;19.20;57.60;;;;;;5038232;28;20036;-62
2023/05/01 05:48:28;;;;;;;9.65;6.68;;;19.20;57.70;;;;;;5038597;28;20041;-61
2023/05/01 05:50:54;;;;;;;10.13;7.22;;;19.20;57.70;;;;;;5041121;28;20132;-60
2023/05/01 05:53:19;;;;;;;7.80;6.57;;;19.20;57.60;;;;;;5037528;28;20029;-60
2023/05/01 05:55:48;;;;;;;10.40;7.50;;;19.20;57.70;;;;;;5034267;28;20486;-60
2023/05/01 05:58:18;;;;;;;10.35;6.70;;;19.20;57.70;;;;;;5037065;28;20061;-59
2023/05/01 06:00:48;;;;;;;8.68;6.93;;;19.20;57.60;;;;;;5036496;28;20702;-60
2023/05/01 06:03:15;;;;;;;9.40;6.82;;;19.20;57.60;;;;;;5021709;28;20112;-59
2023/05/01 06:05:41;;;;;;;9.32;7.07;;;19.20;57.60;;;;;;5038214;28;20033;-60
2023/05/01 06:08:09;;;;;;;10.27;7.00;;;19.20;57.80;;;;;;5038664;28;20056;-61
2023/05/01 06:10:35;;;;;;;8.45;7.00;;;19.20;57.80;;;;;;5037337;28;20028;-61
2023/05/01 06:13:00;;;;;;;9.75;7.40;;;19.20;57.80;;;;;;5037831;28;20039;-60
2023/05/01 06:15:26;;;;;;;9.50;6.97;;;19.20;57.80;;;;;;5038026;28;20037;-61
2023/05/01 06:17:52;;;;;;;9.93;7.05;;;19.20;57.80;;;;;;5038015;28;20470;-59
2023/05/01 06:20:17;;;;;;;9.25;7.07;;;19.30;57.80;;;;;;5038015;28;20032;-61
2023/05/01 06:22:43;;;;;;;13.27;7.05;;;19.20;57.90;;;;;;5037087;28;20044;-61
2023/05/01 06:25:09;;;;;;;10.57;7.60;;;19.20;57.90;;;;;;5039138;28;20056;-60
2023/05/01 06:27:34;;;;;;;11.00;7.43;;;19.20;58.20;;;;;;5036926;28;20029;-61
2023/05/01 06:30:00;;;;;;;13.32;6.82;;;19.20;58.10;;;;;;5038578;28;20612;-61
2023/05/01 06:32:25;;;;;;;19.25;6.70;;;19.30;58.30;;;;;;5038290;28;20087;-61
2023/05/01 06:34:50;;;;;;;12.43;7.57;;;19.30;58.10;;;;;;5039499;28;20506;-59
2023/05/01 06:37:16;;;;;;;9.20;7.20;;;19.30;58.00;;;;;;5037978;28;20212;-60
2023/05/01 06:39:41;;;;;;;16.30;7.00;;;19.30;57.90;;;;;;5037978;28;20021;-61
2023/05/01 06:42:10;;;;;;;12.38;7.80;;;19.30;57.60;;;;;;5035121;28;20025;-58
2023/05/01 06:44:35;;;;;;;11.73;7.25;;;19.30;57.60;;;;;;5037972;28;20035;-60
2023/05/01 06:47:01;;;;;;;15.75;7.53;;;19.30;57.50;;;;;;5038764;28;20144;-61
2023/05/01 06:49:26;;;;;;;11.68;6.60;;;19.30;57.50;;;;;;5038340;28;20017;-60
2023/05/01 06:51:52;;;;;;;11.00;6.78;;;19.30;57.40;;;;;;5037836;28;20460;-61
2023/05/01 06:54:17;;;;;;;15.15;7.28;;;19.40;57.70;;;;;;5041041;28;20025;-61
2023/05/01 06:56:43;;;;;;;14.65;6.45;;;19.30;57.70;;;;;;5024569;28;20037;-61
2023/05/01 06:59:08;;;;;;;12.90;7.38;;;19.40;57.80;;;;;;5041919;28;20689;-60
2023/05/01 07:01:34;;;;;;;11.18;6.97;;;19.40;58.50;;;;;;5038771;28;20045;-61
2023/05/01 07:03:59;;;;;;;17.83;7.07;;;19.40;57.90;;;;;;5042802;28;20421;-59
2023/05/01 07:06:26;;;;;;;12.75;6.65;;;19.30;57.80;;;;;;5041732;28;20052;-60
2023/05/01 07:08:52;;;;;;;12.23;7.40;;;19.30;57.80;;;;;;5039752;28;20017;-59
2023/05/01 07:11:17;;;;;;;12.05;7.60;;;19.30;57.90;;;;;;5039976;28;20029;-60
2023/05/01 07:13:43;;;;;;;14.32;7.45;;;19.30;57.80;;;;;;5040782;28;20037;-60
2023/05/01 07:16:08;;;;;;;12.55;6.78;;;19.30;57.80;;;;;;5042926;28;20044;-60
2023/05/01 07:18:34;;;;;;;11.70;6.60;;;19.30;57.60;;;;;;5041273;28;20051;-60
2023/05/01 07:21:00;;;;;;;12.95;6.38;;;19.40;57.70;;;;;;5042552;28;20037;-59
2023/05/01 07:23:26;;;;;;;11.35;6.93;;;19.30;57.60;;;;;;5042687;28;20029;-61
2023/05/01 07:25:52;;;;;;;12.18;7.25;;;19.30;57.50;;;;;;5024040;28;20037;-60
2023/05/01 07:28:19;;;;;;;13.30;6.85;;;19.30;57.40;;;;;;5041912;28;20029;-60
2023/05/01 07:30:44;;;;;;;12.55;6.80;;;19.30;57.40;;;;;;5040718;28;20051;-60
2023/05/01 07:33:10;;;;;;;12.25;8.18;;;19.30;57.60;;;;;;5042786;28;20573;-59
2023/05/01 07:35:36;;;;;;;14.45;8.23;;;19.30;57.40;;;;;;5041490;28;20036;-61
2023/05/01 07:38:01;;;;;;;14.80;8.30;;;19.30;57.30;;;;;;5042013;28;20706;-60
2023/05/01 07:40:27;;;;;;;19.05;9.43;;;19.30;57.30;;;;;;5040516;28;20029;-61
2023/05/01 07:42:52;;;;;;;18.50;9.18;;;19.30;57.60;;;;;;5039638;28;20408;-61
2023/05/01 07:45:18;;;;;;;17.63;9.43;;;19.50;57.80;;;;;;5041606;28;20033;-61
2023/05/01 07:47:43;;;;;;;16.48;8.15;;;19.50;57.70;;;;;;5042136;28;20021;-60
2023/05/01 07:50:10;;;;;;;15.18;8.40;;;19.40;58.00;;;;;;5043393;28;20116;-59
2023/05/01 07:52:36;;;;;;;16.35;9.27;;;19.30;58.10;;;;;;5023075;28;20033;-61
2023/05/01 07:55:03;;;;;;;45.20;21.38;;;19.40;58.20;;;;;;5044207;28;20051;-61
2023/05/01 07:57:29;;;;;;;47.35;22.20;;;19.30;58.60;;;;;;5042194;28;20047;-61
2023/05/01 07:59:55;;;;;;;44.08;22.85;;;19.30;58.80;;;;;;5041804;28;20056;-59
2023/05/01 08:02:21;;;;;;;42.72;22.73;;;19.30;58.80;;;;;;5040095;28;20071;-61
2023/05/01 08:04:47;;;;;;;42.42;22.33;;;19.30;58.70;;;;;;5039498;28;21266;-60
2023/05/01 08:07:13;;;;;;;38.45;20.65;;;19.30;58.60;;;;;;5043095;28;20035;-61
2023/05/01 08:09:39;;;;;;;36.85;21.35;;;19.20;58.50;;;;;;5043049;28;20033;-61
2023/05/01 08:12:04;;;;;;;33.33;19.15;;;19.20;58.60;;;;;;5043906;28;20688;-62
2023/05/01 08:14:30;;;;;;;36.97;19.15;;;19.20;58.70;;;;;;5042550;28;20041;-61
2023/05/01 08:16:56;;;;;;;36.83;17.08;;;19.20;58.50;;;;;;5044005;28;20033;-61
2023/05/01 08:19:22;;;;;;;34.28;17.58;;;19.20;58.50;;;;;;5043729;28;20021;-60
2023/05/01 08:21:48;;;;;;;37.20;16.88;;;19.10;58.30;;;;;;5041876;28;20044;-61
2023/05/01 08:24:13;;;;;;;38.45;18.02;;;19.20;58.30;;;;;;5044268;28;20108;-62
2023/05/01 08:26:39;;;;;;;35.95;15.95;;;19.10;58.30;;;;;;5040864;28;20060;-61
2023/05/01 08:29:04;;;;;;;36.60;16.65;;;19.10;58.40;;;;;;5042448;28;20041;-62
2023/05/01 08:31:30;;;;;;;30.20;14.65;;;19.10;58.40;;;;;;5040656;28;20033;-60
2023/05/01 08:33:56;;;;;;;34.30;15.75;;;19.10;58.50;;;;;;5039925;28;20037;-62
2023/05/01 08:36:21;;;;;;;31.20;13.60;;;19.10;58.60;;;;;;5040578;28;20087;-61
2023/05/01 08:38:47;;;;;;;34.95;15.35;;;19.00;58.80;;;;;;5040347;28;20037;-62
2023/05/01 08:41:20;;;;;;;36.67;14.80;;;19.10;59.00;;;;;;5040553;28;20037;-61
2023/05/01 08:43:45;;;;;;;24.77;13.80;;;19.10;59.10;;;;;;5038151;28;20565;-62
2023/05/01 08:46:13;;;;;;;31.15;13.05;;;19.10;59.30;;;;;;5023888;28;20123;-61
2023/05/01 08:48:41;;;;;;;25.88;12.82;;;19.10;59.10;;;;;;5022243;28;20025;-61
2023/05/01 08:51:10;;;;;;;25.63;12.02;;;19.10;59.10;;;;;;5038925;28;20056;-61
2023/05/01 08:53:37;;;;;;;26.88;11.50;;;19.20;58.70;;;;;;4996203;28;20037;-61
2023/05/01 08:56:06;;;;;;;24.50;11.98;;;19.20;58.50;;;;;;5040951;28;20036;-61
2023/05/01 08:58:34;;;;;;;24.30;10.73;;;19.20;58.40;;;;;;5035543;28;20473;-62
2023/05/01 09:01:01;;;;;;;19.13;10.55;;;19.30;58.40;;;;;;5040122;28;20033;-60
2023/05/01 09:03:30;;;;;;;19.98;9.75;;;19.30;58.30;;;;;;5035829;28;20034;-59
2023/05/01 09:05:57;;;;;;;19.23;10.15;;;19.30;58.20;;;;;;5041413;28;20025;-61
2023/05/01 09:08:22;;;;;;;18.02;9.88;;;19.30;58.20;;;;;;5037874;28;20033;-61
2023/05/01 09:10:49;;;;;;;19.17;9.88;;;19.30;58.10;;;;;;5039211;28;20127;-60
2023/05/01 09:13:15;;;;;;;22.17;9.65;;;19.40;58.20;;;;;;5040182;28;20591;-62
2023/05/01 09:15:41;;;;;;;17.27;9.65;;;19.40;58.20;;;;;;5039417;28;20100;-61
2023/05/01 09:18:07;;;;;;;13.95;8.43;;;19.40;58.20;;;;;;5040131;28;20106;-61
2023/05/01 09:20:36;;;;;;;25.08;9.60;;;19.40;58.10;;;;;;5038215;28;20025;-61
2023/05/01 09:23:01;;;;;;;21.42;9.23;;;19.40;58.00;;;;;;5040640;28;21666;-60
2023/05/01 09:25:27;;;;;;;19.60;8.90;;;19.40;57.90;;;;;;5021783;28;20063;-59
2023/05/01 09:27:54;;;;;;;17.67;9.27;;;19.40;57.80;;;;;;5040217;28;20189;-61
2023/05/01 09:30:34;;;;;;;18.35;9.13;;;19.40;57.60;;;;;;5038400;28;20032;-60
2023/05/01 09:33:13;;;;;;;15.82;8.85;;;19.50;57.50;;;;;;5038587;28;20133;-62
2023/05/01 09:35:50;;;;;;;16.48;7.38;;;19.40;57.40;;;;;;5038140;28;20060;-61
2023/05/01 09:38:23;;;;;;;14.43;8.93;;;19.40;57.40;;;;;;5026015;28;20029;-61
2023/05/01 09:40:50;;;;;;;19.00;7.97;;;19.40;57.30;;;;;;5035522;28;20103;-61
2023/05/01 09:43:29;;;;;;;10.90;7.13;;;19.40;57.20;;;;;;5038804;28;20453;-62
2023/05/01 09:46:03;;;;;;;15.75;7.70;;;19.50;57.20;;;;;;5039009;28;20044;-60
2023/05/01 09:48:29;;;;;;;14.35;7.10;;;19.40;57.10;;;;;;5020415;28;20506;-61
2023/05/01 09:50:54;;;;;;;11.57;6.90;;;19.40;56.80;;;;;;5037655;28;20033;-60
2023/05/01 09:53:36;;;;;;;11.60;7.32;;;19.50;57.00;;;;;;5010815;28;20396;-62
2023/05/01 09:56:02;;;;;;;13.00;7.25;;;19.40;56.90;;;;;;5038892;28;20156;-60
2023/05/01 09:58:29;;;;;;;10.80;7.53;;;19.40;56.80;;;;;;5038521;28;20059;-60
2023/05/01 10:00:54;;;;;;;13.43;7.57;;;19.40;56.80;;;;;;5036888;28;20025;-61
2023/05/01 10:03:20;;;;;;;9.18;6.20;;;19.40;56.70;;;;;;5012480;28;20036;-60
2023/05/01 10:05:46;;;;;;;10.45;6.70;;;19.40;56.80;;;;;;5039735;28;20048;-61
2023/05/01 10:08:14;;;;;;;10.23;6.20;;;19.40;56.70;;;;;;5039663;28;20056;-61
2023/05/01 10:10:42;;;;;;;8.05;6.00;;;19.40;56.80;;;;;;5038330;28;20029;-60
2023/05/01 10:13:16;;;;;;;13.90;6.75;;;19.40;56.80;;;;;;5039835;28;20124;-61
2023/05/01 10:15:47;;;;;;;12.32;6.85;;;19.40;56.30;;;;;;5037454;28;20033;-61
2023/05/01 10:18:13;;;;;;;12.18;6.10;;;19.40;56.40;;;;;;5036713;28;20025;-60
2023/05/01 10:20:39;;;;;;;10.63;5.93;;;19.40;56.20;;;;;;5036134;28;20037;-59
2023/05/01 10:23:05;;;;;;;10.55;6.38;;;19.40;55.70;;;;;;5038171;28;20048;-61
2023/05/01 10:25:31;;;;;;;9.20;5.90;;;19.40;56.10;;;;;;5007326;28;20041;-60
2023/05/01 10:27:57;;;;;;;9.60;5.97;;;19.40;56.00;;;;;;5038224;28;20036;-60
2023/05/01 10:30:25;;;;;;;7.72;5.45;;;19.40;56.00;;;;;;5010960;28;20040;-61
2023/05/01 10:32:51;;;;;;;10.05;5.80;;;19.40;55.80;;;;;;5037797;28;20044;-61
2023/05/01 10:35:37;;;;;;;7.32;5.82;;;19.40;55.80;;;;;;5038862;28;20513;-61
2023/05/01 10:38:18;;;;;;;10.05;5.55;;;19.40;56.10;;;;;;5038341;28;20048;-61
2023/05/01 10:40:48;;;;;;;7.88;5.15;;;19.40;56.30;;;;;;5038366;28;20033;-60
2023/05/01 10:43:26;;;;;;;10.43;5.78;;;19.40;56.30;;;;;;5039712;28;20044;-60
2023/05/01 10:46:08;;;;;;;11.13;5.35;;;19.40;56.10;;;;;;5037779;28;20043;-61
2023/05/01 10:48:36;;;;;;;6.95;4.93;;;19.40;56.20;;;;;;5037511;28;20037;-61
2023/05/01 10:51:14;;;;;;;7.03;5.22;;;19.40;56.20;;;;;;5038277;28;20498;-61
2023/05/01 10:54:05;;;;;;;8.52;5.47;;;19.40;56.20;;;;;;5037511;28;20403;-60
2023/05/01 10:56:31;;;;;;;7.70;5.85;;;19.40;56.20;;;;;;5034151;28;20032;-59
2023/05/01 10:59:03;;;;;;;7.93;5.25;;;19.40;56.40;;;;;;5035277;28;20546;-60
2023/05/01 11:01:32;;;;;;;6.07;4.88;;;19.40;56.40;;;;;;5036293;28;20036;-60
2023/05/01 11:04:26;;;;;;;8.65;4.85;;;19.40;56.40;;;;;;5037805;28;20048;-60
2023/05/01 11:07:01;;;;;;;6.47;4.97;;;19.40;56.50;;;;;;5037002;28;20399;-62
2023/05/01 11:10:06;;;;;;;8.60;5.85;;;19.50;56.60;;;;;;5038486;28;20032;-61
2023/05/01 11:12:47;;;;;;;7.05;4.47;;;19.50;56.50;;;;;;4999152;28;20029;-63
2023/05/01 11:15:24;;;;;;;10.48;5.93;;;19.50;56.50;;;;;;5038643;28;20028;-60
2023/05/01 11:17:51;;;;;;;6.97;5.22;;;19.50;56.50;;;;;;5036580;28;20033;-61
2023/05/01 11:20:25;;;;;;;8.07;5.47;;;19.50;56.70;;;;;;5038944;28;20017;-61
2023/05/01 11:22:52;;;;;;;7.22;4.88;;;19.50;56.60;;;;;;5037445;28;20071;-60
2023/05/01 11:25:22;;;;;;;6.80;4.90;;;19.50;56.70;;;;;;5039387;28;20028;-60
2023/05/01 11:27:50;;;;;;;8.55;4.93;;;19.50;56.70;;;;;;5036975;28;20587;-60
2023/05/01 11:30:16;;;;;;;5.20;4.57;;;19.50;56.90;;;;;;5038491;28;20508;-61
2023/05/01 11:32:48;;;;;;;6.32;4.88;;;19.50;56.90;;;;;;5037330;28;20045;-61
2023/05/01 11:35:27;;;;;;;7.63;4.90;;;19.50;56.90;;;;;;5038069;28;20041;-61
2023/05/01 11:37:54;;;;;;;5.32;4.60;;;19.50;57.00;;;;;;5036995;28;20398;-61
2023/05/01 11:40:23;;;;;;;7.43;4.55;;;19.50;57.00;;;;;;5040706;28;20033;-61
2023/05/01 11:42:50;;;;;;;6.85;5.00;;;19.50;57.00;;;;;;5040415;28;20041;-60
2023/05/01 11:45:18;;;;;;;6.03;4.40;;;19.50;57.10;;;;;;5033993;28;20095;-62
2023/05/01 11:47:43;;;;;;;6.38;4.57;;;19.50;57.10;;;;;;5039674;28;20464;-61
2023/05/01 11:50:10;;;;;;;6.05;4.45;;;19.50;57.20;;;;;;5042071;28;20112;-60
2023/05/01 11:52:53;;;;;;;6.85;4.45;;;19.50;57.20;;;;;;5023622;28;20037;-59
2023/05/01 11:55:20;;;;;;;5.82;4.50;;;19.50;57.20;;;;;;5042114;28;20044;-60
2023/05/01 11:57:52;;;;;;;6.95;4.63;;;19.50;57.30;;;;;;5037896;28;20084;-60
2023/05/01 12:00:32;;;;;;;5.15;4.30;;;19.50;57.30;;;;;;5038985;28;20549;-61
2023/05/01 12:03:02;;;;;;;5.93;4.30;;;19.50;57.30;;;;;;5039868;28;20086;-61
2023/05/01 12:05:30;;;;;;;6.93;4.03;;;19.50;57.40;;;;;;5040195;28;20114;-61
2023/05/01 12:08:06;;;;;;;6.15;4.22;;;19.50;57.40;;;;;;5038698;28;20041;-61
2023/05/01 12:10:32;;;;;;;4.93;4.03;;;19.50;57.40;;;;;;5040933;28;20033;-60
2023/05/01 12:12:58;;;;;;;6.70;3.85;;;19.50;57.50;;;;;;5022754;28;20045;-60
2023/05/01 12:15:23;;;;;;;4.55;3.63;;;19.50;57.50;;;;;;5041714;28;20170;-60
2023/05/01 12:17:49;;;;;;;7.07;4.53;;;19.50;57.50;;;;;;5036443;28;20036;-62
2023/05/01 12:20:14;;;;;;;7.00;4.28;;;19.50;57.50;;;;;;5024677;28;20031;-62
2023/05/01 12:22:49;;;;;;;5.90;4.63;;;19.60;57.60;;;;;;5040473;28;20108;-62
2023/05/01 12:25:16;;;;;;;5.97;3.92;;;19.60;57.70;;;;;;5032635;28;20048;-62
2023/05/01 12:27:43;;;;;;;4.85;3.78;;;19.60;57.60;;;;;;5011634;28;20052;-62
2023/05/01 12:30:09;;;;;;;5.75;3.97;;;19.50;57.60;;;;;;5041063;28;21048;-62
2023/05/01 12:32:34;;;;;;;6.15;4.00;;;19.50;57.60;;;;;;5019878;28;20045;-62
2023/05/01 12:35:00;;;;;;;5.60;4.15;;;19.60;57.70;;;;;;5040168;28;20056;-61
2023/05/01 12:37:31;;;;;;;5.90;3.55;;;19.50;57.70;;;;;;5040083;28;20025;-61
2023/05/01 12:39:57;;;;;;;4.45;3.72;;;19.60;57.80;;;;;;5037422;28;20513;-62
2023/05/01 12:42:22;;;;;;;4.55;3.63;;;19.50;57.80;;;;;;5039915;28;20025;-61